Home > Products > Valid Products > TAF

000
FTUS45 KTWC 060500
TAFOLS
TAF
KOLS 060520Z 0606/0706 05010KT P6SM SKC
     FM061800 12012G22KT P6SM FEW150
     FM070100 10008KT P6SM SCT070=



000
FTUS45 KTWC 060500
TAFDUG
TAF
KDUG 060520Z 0606/0706 08013G19KT P6SM SKC
     FM060900 04010KT P6SM SKC
     FM061600 10016G26KT P6SM SKC
     FM070100 10012KT P6SM FEW070=



000
FTUS45 KTWC 060500
TAFTUS
TAF
KTUS 060520Z 0606/0706 10011KT P6SM SKC
     FM061200 12015G25KT P6SM SKC
     FM061700 11022G32KT P6SM FEW150
     FM070000 10011KT P6SM SCT090=



000
FTUS45 KTWC 060200 AAA
TAFOLS
TAF AMD
KOLS 060201Z 0602/0624 10011KT P6SM SKC
     FM060500 06010KT P6SM SKC
     FM061800 11012G22KT P6SM FEW150=



000
FTUS45 KTWC 060200 AAA
TAFOLS
TAF AMD
KOLS 060201Z 0602/0624 10011KT P6SM SKC
     FM060500 06010KT P6SM SKC
     FM061800 11012G22KT P6SM FEW150=



000
FTUS45 KTWC 060200 AAA
TAFOLS
TAF AMD
KOLS 060201Z 0602/0624 10011KT P6SM SKC
     FM060500 06010KT P6SM SKC
     FM061800 11012G22KT P6SM FEW150=



000
FTUS45 KTWC 060200 AAA
TAFOLS
TAF AMD
KOLS 060201Z 0602/0624 10011KT P6SM SKC
     FM060500 06010KT P6SM SKC
     FM061800 11012G22KT P6SM FEW150=



000
FTUS45 KTWC 052300
TAFOLS
TAF
KOLS 052332Z 0600/0624 04012G20KT P6SM SKC
     FM060500 06010KT P6SM SKC
     FM061800 11012G22KT P6SM FEW150=



000
FTUS45 KTWC 052300
TAFTUS
TAF
KTUS 052332Z 0600/0624 06009KT P6SM SKC
     FM060400 11011KT P6SM SKC
     FM061300 12014G24KT P6SM SKC
     FM061700 12022G32KT P6SM FEW150=



000
FTUS45 KTWC 052300
TAFDUG
TAF
KDUG 052332Z 0600/0624 10013G19KT P6SM SKC
     FM060700 04012KT P6SM SKC
     FM061600 10016G26KT P6SM FEW150=



000
FTUS45 KTWC 052300
TAFDUG
TAF
KDUG 052332Z 0600/0624 10013G19KT P6SM SKC
     FM060700 04012KT P6SM SKC
     FM061600 10016G26KT P6SM FEW150=



000
FTUS45 KTWC 052300
TAFTUS
TAF
KTUS 052332Z 0600/0624 06009KT P6SM SKC
     FM060400 11011KT P6SM SKC
     FM061300 12014G24KT P6SM SKC
     FM061700 12022G32KT P6SM FEW150=



000
FTUS45 KTWC 052300
TAFOLS
TAF
KOLS 052332Z 0600/0624 04012G20KT P6SM SKC
     FM060500 06010KT P6SM SKC
     FM061800 11012G22KT P6SM FEW150=



000
FTUS45 KTWC 052300
TAFOLS
TAF
KOLS 052332Z 0600/0624 04012G20KT P6SM SKC
     FM060500 06010KT P6SM SKC
     FM061800 11012G22KT P6SM FEW150=



000
FTUS45 KTWC 052200 AAA
TAFOLS
TAF AMD
KOLS 052203Z 0522/0618 04014G22KT P6SM SKC
     FM060300 06011KT P6SM SKC
     FM061500 12014G24KT P6SM SKC=



000
FTUS45 KTWC 052200 AAA
TAFOLS
TAF AMD
KOLS 052203Z 0522/0618 04014G22KT P6SM SKC
     FM060300 06011KT P6SM SKC
     FM061500 12014G24KT P6SM SKC=



000
FTUS45 KTWC 051700
TAFOLS
TAF
KOLS 051735Z 0518/0618 08011KT P6SM SKC
     FM052000 09014G22KT P6SM SKC
     FM060300 06011KT P6SM SKC
     FM061500 12014G24KT P6SM SKC=



000
FTUS45 KTWC 051700
TAFDUG
TAF
KDUG 051735Z 0518/0618 09018G26KT P6SM SKC
     FM060300 08011G20KT P6SM SKC
     FM061000 05012KT P6SM SKC
     FM061500 10018G28KT P6SM SKC=



000
FTUS45 KTWC 051700
TAFOLS
TAF
KOLS 051735Z 0518/0618 08011KT P6SM SKC
     FM052000 09014G22KT P6SM SKC
     FM060300 06011KT P6SM SKC
     FM061500 12014G24KT P6SM SKC=



000
FTUS45 KTWC 051700
TAFTUS
TAF
KTUS 051735Z 0518/0618 04009KT P6SM SKC
     FM052100 09012G20KT P6SM SKC
     FM060200 11011KT P6SM SKC
     FM061400 12014G22KT P6SM SKC
     FM061700 12022G32KT P6SM SKC=



000
FTUS45 KTWC 051100
TAFDUG
TAF
KDUG 051139Z 0512/0612 VRB04KT P6SM SKC
     FM051700 09018G26KT P6SM SKC
     FM060300 08011G20KT P6SM SKC
     FM061000 05012KT P6SM SKC=



000
FTUS45 KTWC 051100
TAFOLS
TAF
KOLS 051139Z 0512/0612 VRB03KT P6SM SKC
     FM051700 08013G22KT P6SM SKC
     FM060300 06012KT P6SM SKC=



000
FTUS45 KTWC 051100
TAFTUS
TAF
KTUS 051139Z 0512/0612 14007KT P6SM SKC
     FM051700 09016G25KT P6SM SKC
     FM060200 08012KT P6SM SKC=



000
FTUS45 KTWC 051100
TAFOLS
TAF
KOLS 051139Z 0512/0612 VRB03KT P6SM SKC
     FM051700 08013G22KT P6SM SKC
     FM060300 06012KT P6SM SKC=



000
FTUS45 KTWC 051100
TAFOLS
TAF
KOLS 051139Z 0512/0612 VRB03KT P6SM SKC
     FM051700 08013G22KT P6SM SKC
     FM060300 06012KT P6SM SKC=



000
FTUS45 KTWC 051100
TAFTUS
TAF
KTUS 051139Z 0512/0612 14007KT P6SM SKC
     FM051700 09016G25KT P6SM SKC
     FM060200 08012KT P6SM SKC=



000
FTUS45 KTWC 051100
TAFOLS
TAF
KOLS 051139Z 0512/0612 VRB03KT P6SM SKC
     FM051700 08013G22KT P6SM SKC
     FM060300 06012KT P6SM SKC=



000
FTUS45 KTWC 051100
TAFDUG
TAF
KDUG 051139Z 0512/0612 VRB04KT P6SM SKC
     FM051700 09018G26KT P6SM SKC
     FM060300 08011G20KT P6SM SKC
     FM061000 05012KT P6SM SKC=



000
FTUS45 KTWC 050500
TAFOLS
TAF
KOLS 050520Z 0506/0606 VRB03KT P6SM SKC
     FM051700 08013G22KT P6SM SKC
     FM060300 06012KT P6SM SKC=



000
FTUS45 KTWC 050500
TAFTUS
TAF
KTUS 050520Z 0506/0606 20005KT P6SM SKC
     FM050800 14006KT P6SM SKC
     FM051600 10015G25KT P6SM SKC
     FM060200 08012KT P6SM SKC=



000
FTUS45 KTWC 050500
TAFOLS
TAF
KOLS 050520Z 0506/0606 VRB03KT P6SM SKC
     FM051700 08013G22KT P6SM SKC
     FM060300 06012KT P6SM SKC=



000
FTUS45 KTWC 050500
TAFOLS
TAF
KOLS 050520Z 0506/0606 VRB03KT P6SM SKC
     FM051700 08013G22KT P6SM SKC
     FM060300 06012KT P6SM SKC=



000
FTUS45 KTWC 050500
TAFDUG
TAF
KDUG 050520Z 0506/0606 VRB04KT P6SM SKC
     FM051500 09018G26KT P6SM SKC
     FM060300 08012G20KT P6SM SKC=



000
FTUS45 KTWC 050500
TAFOLS
TAF
KOLS 050520Z 0506/0606 VRB03KT P6SM SKC
     FM051700 08013G22KT P6SM SKC
     FM060300 06012KT P6SM SKC=



000
FTUS45 KTWC 050500
TAFDUG
TAF
KDUG 050520Z 0506/0606 VRB04KT P6SM SKC
     FM051500 09018G26KT P6SM SKC
     FM060300 08012G20KT P6SM SKC=



000
FTUS45 KTWC 050500
TAFTUS
TAF
KTUS 050520Z 0506/0606 20005KT P6SM SKC
     FM050800 14006KT P6SM SKC
     FM051600 10015G25KT P6SM SKC
     FM060200 08012KT P6SM SKC=



000
FTUS45 KTWC 042300
TAFOLS
TAF
KOLS 042330Z 0500/0524 31010G17KT P6SM SCT080
     FM050300 06007KT P6SM SCT080
     FM050500 VRB04KT P6SM SKC
     FM051400 10014G22KT P6SM FEW060=



000
FTUS45 KTWC 042300
TAFTUS
TAF
KTUS 042330Z 0500/0524 33010KT P6SM FEW080
     FM050200 29007KT P6SM SKC
     FM050600 14006KT P6SM SKC
     FM051500 11015G25KT P6SM SKC=



000
FTUS45 KTWC 042300
TAFDUG
TAF
KDUG 042330Z 0500/0524 29009KT P6SM SCT060 BKN080
     FM050300 34006KT P6SM SCT060
     FM051400 09018G26KT P6SM FEW060=



000
FTUS45 KTWC 042300
TAFOLS
TAF
KOLS 042330Z 0500/0524 31010G17KT P6SM SCT080
     FM050300 06007KT P6SM SCT080
     FM050500 VRB04KT P6SM SKC
     FM051400 10014G22KT P6SM FEW060=



000
FTUS45 KTWC 042100 AAA
TAFDUG
TAF AMD
KDUG 042148Z 0422/0518 30010KT P6SM VCSH SCT030 OVC050
     FM050300 33006KT P6SM SCT050
     FM050600 VRB03KT P6SM FEW050=



000
FTUS45 KTWC 042100 AAA
TAFTUS
TAF AMD
KTUS 042147Z 0422/0518 32010KT P6SM SCT050 BKN080
     FM050200 27005KT P6SM FEW080
     FM050600 14006KT P6SM SKC=



000
FTUS45 KTWC 041700
TAFOLS
TAF
KOLS 041720Z 0418/0518 VRB03KT P6SM SCT040 BKN070
     FM042000 29009KT P6SM VCSH SCT040 OVC070
     FM042200 31010G18KT P6SM VCSH SCT040 OVC070
     FM050300 29007KT P6SM SCT070
     FM050500 VRB03KT P6SM FEW070=



000
FTUS45 KTWC 041700
TAFDUG
TAF
KDUG 041720Z 0418/0518 VRB03KT P6SM SCT040 BKN060
     FM042000 32012G18KT P6SM VCSH SCT030 OVC050
     FM050300 33006KT P6SM SCT050
     FM050600 VRB03KT P6SM FEW050=



000
FTUS45 KTWC 041700
TAFOLS
TAF
KOLS 041720Z 0418/0518 VRB03KT P6SM SCT040 BKN070
     FM042000 29009KT P6SM VCSH SCT040 OVC070
     FM042200 31010G18KT P6SM VCSH SCT040 OVC070
     FM050300 29007KT P6SM SCT070
     FM050500 VRB03KT P6SM FEW070=



000
FTUS45 KTWC 041700
TAFTUS
TAF
KTUS 041720Z 0418/0518 27005KT P6SM SCT050 BKN080
     FM042100 31009G15KT P6SM SCT050 BKN080
     FM050200 27005KT P6SM FEW080
     FM050600 14006KT P6SM SKC=



000
FTUS45 KTWC 041700
TAFDUG
TAF
KDUG 041720Z 0418/0518 VRB03KT P6SM SCT040 BKN060
     FM042000 32012G18KT P6SM VCSH SCT030 OVC050
     FM050300 33006KT P6SM SCT050
     FM050600 VRB03KT P6SM FEW050=



000
FTUS45 KTWC 041700
TAFTUS
TAF
KTUS 041720Z 0418/0518 27005KT P6SM SCT050 BKN080
     FM042100 31009G15KT P6SM SCT050 BKN080
     FM050200 27005KT P6SM FEW080
     FM050600 14006KT P6SM SKC=



000
FTUS45 KTWC 041700
TAFOLS
TAF
KOLS 041720Z 0418/0518 VRB03KT P6SM SCT040 BKN070
     FM042000 29009KT P6SM VCSH SCT040 OVC070
     FM042200 31010G18KT P6SM VCSH SCT040 OVC070
     FM050300 29007KT P6SM SCT070
     FM050500 VRB03KT P6SM FEW070=



000
FTUS45 KTWC 041700
TAFOLS
TAF
KOLS 041720Z 0418/0518 VRB03KT P6SM SCT040 BKN070
     FM042000 29009KT P6SM VCSH SCT040 OVC070
     FM042200 31010G18KT P6SM VCSH SCT040 OVC070
     FM050300 29007KT P6SM SCT070
     FM050500 VRB03KT P6SM FEW070=



000
FTUS45 KTWC 041100
TAFDUG
TAF
KDUG 041120Z 0412/0512 03005KT P6SM SCT040 BKN050
      TEMPO 0412/0415 -SHRA BKN035
     FM041600 25007KT P6SM SCT040 BKN050
     FM042000 29011G20KT P6SM VCSH SCT030 OVC050
     FM050300 VRB03KT P6SM SCT050=



000
FTUS45 KTWC 041100
TAFTUS
TAF
KTUS 041120Z 0412/0512 26007KT P6SM SCT050 BKN080 OVC110
     FM041900 31009G18KT P6SM SCT050 BKN080
     FM050200 20005KT P6SM FEW080
     FM050500 14007KT P6SM SKC=



000
FTUS45 KTWC 041100
TAFOLS
TAF
KOLS 041120Z 0412/0512 VRB03KT P6SM SCT040 BKN070 OVC100
      TEMPO 0412/0415 -SHRA BKN040
     FM041600 25007KT P6SM SCT040 BKN070
     FM042000 32011G20KT P6SM VCSH SCT040 OVC070
     FM050300 VRB03KT P6SM SCT070=



000
FTUS45 KTWC 040900 AAA
TAFDUG
TAF AMD
KDUG 040923Z 0409/0506 35005KT P6SM SCT040 BKN050
      TEMPO 0410/0413 -SHRA BKN035
     FM041600 25007KT P6SM SCT040 BKN050
     FM042000 29011G20KT P6SM VCSH SCT030 OVC050
     FM050300 VRB03KT P6SM SCT050=



000
FTUS45 KTWC 040900 AAA
TAFOLS
TAF AMD
KOLS 040920Z 0409/0506 VRB03KT P6SM SCT040 BKN070
      TEMPO 0410/0413 -SHRA BKN040
     FM041600 25007KT P6SM SCT040 BKN070
     FM042000 32011G20KT P6SM VCSH SCT040 OVC070
     FM050300 VRB03KT P6SM SCT070=



000
FTUS45 KTWC 040900 AAA
TAFOLS
TAF AMD
KOLS 040920Z 0409/0506 VRB03KT P6SM SCT040 BKN070
      TEMPO 0410/0413 -SHRA BKN040
     FM041600 25007KT P6SM SCT040 BKN070
     FM042000 32011G20KT P6SM VCSH SCT040 OVC070
     FM050300 VRB03KT P6SM SCT070=



000
FTUS45 KTWC 040900 AAA
TAFTUS
TAF AMD
KTUS 040915Z 0409/0506 26007KT P6SM SCT050 BKN080
     FM041900 31009G18KT P6SM FEW050 SCT080
     FM050200 20005KT P6SM FEW080
     FM050500 14007KT P6SM SKC=



000
FTUS45 KTWC 040900 AAA
TAFTUS
TAF AMD
KTUS 040915Z 0409/0506 26007KT P6SM SCT050 BKN080
     FM041900 31009G18KT P6SM FEW050 SCT080
     FM050200 20005KT P6SM FEW080
     FM050500 14007KT P6SM SKC=



000
FTUS45 KTWC 040500
TAFOLS
TAF
KOLS 040520Z 0406/0506 VRB03KT P6SM SCT030 BKN060
     FM041600 25005KT P6SM BKN060
     FM042100 30008KT P6SM SCT040
     FM050300 VRB03KT P6SM SKC=



000
FTUS45 KTWC 040500
TAFTUS
TAF
KTUS 040520Z 0406/0506 24005KT P6SM FEW060 BKN080
     FM040700 17004KT P6SM SCT050 BKN080
     FM041700 31009KT P6SM SCT050
     FM050300 30005KT P6SM SKC=



000
FTUS45 KTWC 040500
TAFDUG
TAF
KDUG 040520Z 0406/0506 20007KT P6SM SCT060
     FM040900 VRB03KT P6SM SCT030 BKN060
     FM041700 29010KT P6SM BKN060
     FM050300 34005KT P6SM SCT060=



000
FTUS45 KTWC 032300
TAFOLS
TAF
KOLS 032320Z 0400/0424 22012G18KT P6SM SCT030 BKN060
     FM040200 23006KT P6SM SCT030 BKN060
     FM040700 VRB03KT P6SM VCSH SCT025 BKN040
     FM041600 25005KT P6SM SCT030 BKN060
     FM042100 30008KT P6SM SCT040=



000
FTUS45 KTWC 032300
TAFDUG
TAF
KDUG 032320Z 0400/0424 23012G20KT P6SM BKN040
     FM040200 20007KT P6SM FEW020 BKN050
     FM040900 VRB03KT P6SM VCSH SCT015 BKN040
     FM041700 29007KT P6SM SCT025 BKN050
     FM042200 30012KT P6SM SCT040=



000
FTUS45 KTWC 032300
TAFOLS
TAF
KOLS 032320Z 0400/0424 22012G18KT P6SM SCT030 BKN060
     FM040200 23006KT P6SM SCT030 BKN060
     FM040700 VRB03KT P6SM VCSH SCT025 BKN040
     FM041600 25005KT P6SM SCT030 BKN060
     FM042100 30008KT P6SM SCT040=



000
FTUS45 KTWC 032300
TAFTUS
TAF
KTUS 032320Z 0400/0424 30008KT P6SM BKN060
     FM040400 24005KT P6SM SCT040 BKN070
     FM040700 17004KT P6SM VCSH SCT030 BKN060
     FM041700 31005KT P6SM SCT050=



000
FTUS45 KTWC 031700 RRA
TAFTUS
TAF
KTUS 031742Z 0318/0418 30008KT P6SM SCT030 BKN060
     FM040400 24005KT P6SM SCT040 BKN070
     FM040900 17004KT P6SM SCT030 BKN060
     FM041700 31005KT P6SM SCT040=



000
FTUS45 KTWC 031700 RRA
TAFOLS
TAF
KOLS 031742Z 0318/0418 22012G18KT P6SM SCT030 BKN060
     FM040200 23006KT P6SM SCT030 BKN060
     FM040800 VRB03KT P6SM VCSH SCT025 BKN040
     FM041600 25005KT P6SM SCT030 BKN060=



000
FTUS45 KTWC 031700 RRA
TAFOLS
TAF
KOLS 031742Z 0318/0418 22012G18KT P6SM SCT030 BKN060
     FM040200 23006KT P6SM SCT030 BKN060
     FM040800 VRB03KT P6SM VCSH SCT025 BKN040
     FM041600 25005KT P6SM SCT030 BKN060=



000
FTUS45 KTWC 031700 RRA
TAFDUG
TAF
KDUG 031742Z 0318/0418 23012G18KT P6SM SCT015 BKN040
      TEMPO 0318/0321 BKN015
     FM040200 20007KT P6SM SCT020 BKN050
     FM040900 VRB03KT P6SM VCSH SCT015 BKN040
     FM041700 29007KT P6SM SCT025 BKN050=



000
FTUS45 KTWC 031700 RRA
TAFDUG
TAF
KDUG 031742Z 0318/0418 23012G18KT P6SM SCT015 BKN040
      TEMPO 0318/0321 BKN015
     FM040200 20007KT P6SM SCT020 BKN050
     FM040900 VRB03KT P6SM VCSH SCT015 BKN040
     FM041700 29007KT P6SM SCT025 BKN050=



000
FTUS45 KTWC 031700 RRA
TAFTUS
TAF
KTUS 031742Z 0318/0418 30008KT P6SM SCT030 BKN060
     FM040400 24005KT P6SM SCT040 BKN070
     FM040900 17004KT P6SM SCT030 BKN060
     FM041700 31005KT P6SM SCT040=



000
FTUS45 KTWC 031600 AAB
TAFDUG
TAF AMD
KDUG 031604Z 0316/0412 VRB04KT P6SM SCT015 OVC040
      TEMPO 0316/0319 BKN015
     FM031900 22018G27KT P6SM SCT050 SCT110
     FM040300 35010KT P6SM VCSH SCT030 BKN050=



000
FTUS45 KTWC 031400 AAA
TAFDUG
TAF AMD
KDUG 031421Z 0314/0412 VRB04KT P6SM SCT025 OVC040
      TEMPO 0314/0316 2SM SHRA BR BKN020
     FM031900 22018G27KT P6SM SCT050 SCT110
     FM040300 35010KT P6SM VCSH SCT030 BKN050=



000
FTUS45 KTWC 031400 AAA
TAFDUG
TAF AMD
KDUG 031421Z 0314/0412 VRB04KT P6SM SCT025 OVC040
      TEMPO 0314/0316 2SM SHRA BR BKN020
     FM031900 22018G27KT P6SM SCT050 SCT110
     FM040300 35010KT P6SM VCSH SCT030 BKN050=



000
FTUS45 KTWC 031300 AAA
TAFOLS
TAF AMD
KOLS 031323Z 0313/0412 VRB03KT P6SM FEW025 SCT035 OVC070
     FM031500 18007KT P6SM FEW040 SCT070
     FM031900 22013G21KT P6SM SCT060 BKN120
     FM040300 18008KT P6SM VCSH SCT040 BKN060=



000
FTUS45 KTWC 031300 AAA
TAFOLS
TAF AMD
KOLS 031323Z 0313/0412 VRB03KT P6SM FEW025 SCT035 OVC070
     FM031500 18007KT P6SM FEW040 SCT070
     FM031900 22013G21KT P6SM SCT060 BKN120
     FM040300 18008KT P6SM VCSH SCT040 BKN060=



000
FTUS45 KTWC 031300 AAA
TAFTUS
TAF AMD
KTUS 031321Z 0313/0412 VRB04KT P6SM SCT070 BKN200
     FM031700 25008KT P6SM SCT080 SCT150
     FM032200 30011KT P6SM SCT070 BKN140
     FM040300 28007KT P6SM SCT040 BKN070=



000
FTUS45 KTWC 031100 RRA
TAFOLS
TAF
KOLS 031140Z 0312/0412 VRB04KT P6SM SCT025 BKN035 OVC060
     FM031400 18007KT P6SM FEW040 SCT060
     FM031900 22013G21KT P6SM SCT060 BKN120
     FM040300 18008KT P6SM VCSH SCT040 BKN060=



000
FTUS45 KTWC 031100 RRA
TAFOLS
TAF
KOLS 031140Z 0312/0412 VRB04KT P6SM SCT025 BKN035 OVC060
     FM031400 18007KT P6SM FEW040 SCT060
     FM031900 22013G21KT P6SM SCT060 BKN120
     FM040300 18008KT P6SM VCSH SCT040 BKN060=



000
FTUS45 KTWC 031100 RRA
TAFTUS
TAF
KTUS 031140Z 0312/0412 26005KT P6SM BKN070
     FM031700 25008KT P6SM SCT080 SCT150
     FM032200 30011KT P6SM SCT070 BKN140
     FM040300 28007KT P6SM SCT040 BKN070=



000
FTUS45 KTWC 031100 RRA
TAFDUG
TAF
KDUG 031140Z 0312/0412 34011KT P6SM VCSH FEW015 BKN025 OVC035
      TEMPO 0312/0313 2SM SHRA BR SCT015 BKN020
     FM031300 VRB04KT P6SM SCT025 BKN035 OVC060
     FM031900 22018G27KT P6SM SCT050 SCT110
     FM040300 35010KT P6SM VCSH SCT030 BKN050=



000
FTUS45 KTWC 031100 RRA
TAFTUS
TAF
KTUS 031140Z 0312/0412 26005KT P6SM BKN070
     FM031700 25008KT P6SM SCT080 SCT150
     FM032200 30011KT P6SM SCT070 BKN140
     FM040300 28007KT P6SM SCT040 BKN070=



000
FTUS45 KTWC 031100 RRA
TAFDUG
TAF
KDUG 031140Z 0312/0412 34011KT P6SM VCSH FEW015 BKN025 OVC035
      TEMPO 0312/0313 2SM SHRA BR SCT015 BKN020
     FM031300 VRB04KT P6SM SCT025 BKN035 OVC060
     FM031900 22018G27KT P6SM SCT050 SCT110
     FM040300 35010KT P6SM VCSH SCT030 BKN050=



000
FTUS45 KTWC 031100 RRA
TAFOLS
TAF
KOLS 031140Z 0312/0412 VRB04KT P6SM SCT025 BKN035 OVC060
     FM031400 18007KT P6SM FEW040 SCT060
     FM031900 22013G21KT P6SM SCT060 BKN120
     FM040300 18008KT P6SM VCSH SCT040 BKN060=



000
FTUS45 KTWC 031000 AAB
TAFDUG
TAF AMD
KDUG 031045Z 0311/0406 33008KT P6SM VCSH FEW015 BKN025 OVC035
      TEMPO 0311/0313 2SM SHRA BR SCT015 BKN020
     FM031300 VRB04KT P6SM SCT025 BKN035 OVC060
     FM031500 32006KT P6SM SCT060 BKN110
     FM031800 22016G26KT P6SM SCT050 SCT110
     FM040300 23011KT P6SM SCT050 BKN090=



000
FTUS45 KTWC 030900 AAB
TAFOLS
TAF AMD
KOLS 030901Z 0309/0406 16005KT P6SM SCT020 OVC030
     FM031100 VRB04KT P6SM SCT035 BKN060
     FM031400 18007KT P6SM SCT060 SCT200
     FM031900 22013G21KT P6SM SCT060 BKN120
     FM040300 18008KT P6SM BKN060=



000
FTUS45 KTWC 030700 AAA
TAFDUG
TAF AMD
KDUG 030742Z 0308/0406 35008KT P6SM VCSH FEW015 BKN025 OVC035
     FM030800 VRB04KT P6SM SCT025 BKN035 OVC060
     FM031400 32006KT P6SM SCT060 BKN110
     FM031800 22016G26KT P6SM SCT050 SCT110
     FM040300 23011KT P6SM SCT050 BKN090=



000
FTUS45 KTWC 030700 AAA
TAFDUG
TAF AMD
KDUG 030742Z 0308/0406 35008KT P6SM VCSH FEW015 BKN025 OVC035
     FM030800 VRB04KT P6SM SCT025 BKN035 OVC060
     FM031400 32006KT P6SM SCT060 BKN110
     FM031800 22016G26KT P6SM SCT050 SCT110
     FM040300 23011KT P6SM SCT050 BKN090=



000
FTUS45 KTWC 030700 AAA
TAFOLS
TAF AMD
KOLS 030739Z 0308/0406 18005KT P6SM VCSH FEW010 SCT015 OVC020
      TEMPO 0308/0310 -SHRA OVC010
     FM031100 VRB04KT P6SM FEW015 SCT025 BKN060
     FM031400 18007KT P6SM SCT060 SCT200
     FM031900 22013G21KT P6SM SCT060 BKN120
     FM040300 18008KT P6SM BKN060=



000
FTUS45 KTWC 030700 AAA
TAFOLS
TAF AMD
KOLS 030739Z 0308/0406 18005KT P6SM VCSH FEW010 SCT015 OVC020
      TEMPO 0308/0310 -SHRA OVC010
     FM031100 VRB04KT P6SM FEW015 SCT025 BKN060
     FM031400 18007KT P6SM SCT060 SCT200
     FM031900 22013G21KT P6SM SCT060 BKN120
     FM040300 18008KT P6SM BKN060=



000
FTUS45 KTWC 030700 AAA
TAFOLS
TAF AMD
KOLS 030739Z 0308/0406 18005KT P6SM VCSH FEW010 SCT015 OVC020
      TEMPO 0308/0310 -SHRA OVC010
     FM031100 VRB04KT P6SM FEW015 SCT025 BKN060
     FM031400 18007KT P6SM SCT060 SCT200
     FM031900 22013G21KT P6SM SCT060 BKN120
     FM040300 18008KT P6SM BKN060=



000
FTUS45 KTWC 030700 AAA
TAFOLS
TAF AMD
KOLS 030739Z 0308/0406 18005KT P6SM VCSH FEW010 SCT015 OVC020
      TEMPO 0308/0310 -SHRA OVC010
     FM031100 VRB04KT P6SM FEW015 SCT025 BKN060
     FM031400 18007KT P6SM SCT060 SCT200
     FM031900 22013G21KT P6SM SCT060 BKN120
     FM040300 18008KT P6SM BKN060=



    US Dept of Commerce
    National Oceanic and Atmospheric Administration
    National Weather Service
    1325 East West Highway
    Silver Spring, MD 20910
    Page Author: NWS Internet Services Team
Disclaimer
Information Quality
Credits
Glossary
Privacy Policy
Freedom of Information Act (FOIA)
About Us
Career Opportunities